Time;durP1;ratioP1;P1;durP2;ratioP2;P2;SDS_P1;SDS_P2;PMS_P1;PMS_P2;Temp;Humidity;BMP_temperature;BMP_pressure;BME280_temperature;BME280_humidity;BME280_pressure;Samples;Min_cycle;Max_cycle;Signal;HPM_P1;HPM_P2
2022/10/09 00:01:03;;;;;;;6.57;5.18;;;;;;;8.05;100.00;93506.63;5091503;28;20101;-73
2022/10/09 00:03:30;;;;;;;7.45;5.60;;;;;;;8.05;100.00;93505.88;5091709;28;20101;-73
2022/10/09 00:05:57;;;;;;;6.63;5.47;;;;;;;8.05;100.00;93510.97;5091110;28;20081;-72
2022/10/09 00:08:23;;;;;;;7.13;5.30;;;;;;;8.01;100.00;93513.13;5091138;28;20040;-72
2022/10/09 00:10:50;;;;;;;7.10;5.20;;;;;;;8.00;100.00;93514.06;5091550;28;20036;-72
2022/10/09 00:13:17;;;;;;;6.55;5.72;;;;;;;7.93;100.00;93503.81;5091489;28;20044;-72
2022/10/09 00:15:46;;;;;;;8.75;5.78;;;;;;;7.94;100.00;93499.47;5090878;28;20040;-72
2022/10/09 00:18:18;;;;;;;6.50;5.30;;;;;;;7.90;100.00;93504.19;5091358;28;20073;-72
2022/10/09 00:20:46;;;;;;;6.65;5.30;;;;;;;7.84;100.00;93498.06;5093433;28;20072;-72
2022/10/09 00:23:16;;;;;;;7.10;5.47;;;;;;;7.80;100.00;93499.38;5091347;28;21356;-72
2022/10/09 00:25:52;;;;;;;10.20;5.20;;;;;;;7.77;100.00;93496.41;5091259;28;20054;-72
2022/10/09 00:28:19;;;;;;;6.85;5.00;;;;;;;7.77;100.00;93494.63;5090952;28;20052;-72
2022/10/09 00:30:47;;;;;;;5.28;4.43;;;;;;;7.77;100.00;93489.53;5090656;28;20498;-72
2022/10/09 00:33:14;;;;;;;6.72;4.85;;;;;;;7.77;100.00;93491.31;5090950;28;20048;-72
2022/10/09 00:35:41;;;;;;;6.80;4.93;;;;;;;7.72;100.00;93486.72;5091139;28;20438;-72
2022/10/09 00:38:09;;;;;;;6.35;5.13;;;;;;;7.71;100.00;93490.25;5090448;28;20044;-73
2022/10/09 00:40:37;;;;;;;7.53;5.22;;;;;;;7.70;100.00;93481.81;5090773;28;20051;-73
2022/10/09 00:43:07;;;;;;;6.00;4.88;;;;;;;7.72;100.00;93482.41;5089510;28;20048;-72
2022/10/09 00:45:33;;;;;;;6.40;4.70;;;;;;;7.72;100.00;93486.72;5090908;28;20093;-72
2022/10/09 00:48:05;;;;;;;5.60;4.97;;;;;;;7.71;100.00;93485.16;5090586;28;20086;-72
2022/10/09 00:50:42;;;;;;;7.72;5.07;;;;;;;7.68;100.00;93473.53;5090990;28;20048;-72
2022/10/09 00:53:13;;;;;;;6.45;5.15;;;;;;;7.63;100.00;93465.63;5090373;28;20040;-73
2022/10/09 00:55:40;;;;;;;6.90;4.80;;;;;;;7.67;100.00;93466.03;5090801;28;20044;-72
2022/10/09 00:58:08;;;;;;;8.35;5.25;;;;;;;7.66;100.00;93467.81;5090506;28;20088;-72
2022/10/09 01:00:35;;;;;;;8.98;5.35;;;;;;;7.60;100.00;93469.31;5090692;28;20449;-72
2022/10/09 01:03:03;;;;;;;6.10;5.15;;;;;;;7.55;100.00;93469.09;5090618;28;20391;-72
2022/10/09 01:05:43;;;;;;;7.93;5.25;;;;;;;7.56;100.00;93472.44;5090469;28;20043;-73
2022/10/09 01:08:16;;;;;;;8.95;5.38;;;;;;;7.38;100.00;93453.22;5090082;28;20557;-73
2022/10/09 01:10:51;;;;;;;7.63;4.50;;;;;;;7.44;100.00;93464.47;5089984;28;20554;-73
2022/10/09 01:13:27;;;;;;;6.72;4.90;;;;;;;7.39;100.00;93474.44;5090490;28;20044;-73
2022/10/09 01:15:58;;;;;;;6.65;5.00;;;;;;;7.29;100.00;93461.97;5090269;28;20070;-74
2022/10/09 01:18:34;;;;;;;7.35;5.55;;;;;;;7.34;100.00;93475.00;5089585;28;20495;-73
2022/10/09 01:21:07;;;;;;;9.95;5.80;;;;;;;7.21;100.00;93462.91;5092313;28;20635;-74
2022/10/09 01:24:08;;;;;;;8.40;6.03;;;;;;;7.17;100.00;93465.03;5089820;28;20085;-73
2022/10/09 01:27:00;;;;;;;7.18;5.75;;;;;;;7.17;100.00;93469.38;5089794;28;20044;-73
2022/10/09 01:29:32;;;;;;;7.63;6.18;;;;;;;7.14;100.00;93462.84;5089240;28;20488;-74
2022/10/09 01:32:01;;;;;;;8.75;6.57;;;;;;;7.14;100.00;93467.97;5089999;28;20295;-73
2022/10/09 01:34:28;;;;;;;9.98;7.85;;;;;;;7.14;100.00;93467.97;5089694;28;20400;-73
2022/10/09 01:36:56;;;;;;;9.50;7.47;;;;;;;7.16;100.00;93471.13;5089897;28;20449;-73
2022/10/09 01:39:25;;;;;;;11.65;7.78;;;;;;;7.13;100.00;93457.91;5089315;28;20563;-73
2022/10/09 01:41:54;;;;;;;11.10;8.02;;;;;;;7.20;100.00;93474.91;5089790;28;20036;-73
2022/10/09 01:44:24;;;;;;;15.57;8.40;;;;;;;7.17;100.00;93469.38;5089563;28;20077;-73
2022/10/09 01:46:51;;;;;;;12.90;8.40;;;;;;;7.06;100.00;93448.44;5089353;28;20040;-73
2022/10/09 01:49:32;;;;;;;13.82;8.13;;;;;;;6.97;100.00;93444.41;5089576;28;20044;-73
2022/10/09 01:52:05;;;;;;;13.25;9.20;;;;;;;7.14;100.00;93474.81;5089393;28;20040;-73
2022/10/09 01:54:38;;;;;;;14.18;9.27;;;;;;;7.15;100.00;93459.31;5089246;28;20047;-73
2022/10/09 01:57:10;;;;;;;14.85;8.95;;;;;;;7.16;100.00;93466.00;5088891;28;20044;-74
2022/10/09 01:59:40;;;;;;;12.60;9.15;;;;;;;7.17;100.00;93475.25;5089094;28;20097;-73
2022/10/09 02:02:08;;;;;;;14.52;9.10;;;;;;;7.15;100.00;93473.84;5089026;28;20138;-72
2022/10/09 02:04:38;;;;;;;14.13;9.00;;;;;;;7.16;100.00;93476.22;5089359;28;20040;-72
2022/10/09 02:07:06;;;;;;;11.35;8.00;;;;;;;7.15;100.00;93482.31;5089126;28;20431;-73
2022/10/09 02:09:34;;;;;;;11.43;8.15;;;;;;;7.17;100.00;93480.34;5089078;28;20052;-73
2022/10/09 02:12:07;;;;;;;10.77;7.60;;;;;;;7.13;100.00;93479.13;5088936;28;20073;-73
2022/10/09 02:14:34;;;;;;;9.10;7.63;;;;;;;7.09;100.00;93478.72;5089083;28;20048;-72
2022/10/09 02:17:05;;;;;;;9.80;6.85;;;;;;;7.02;100.00;93482.16;5088870;28;20089;-74
2022/10/09 02:19:39;;;;;;;9.70;7.25;;;;;;;7.07;100.00;93492.63;5091579;28;20097;-73
2022/10/09 02:22:12;;;;;;;7.68;6.53;;;;;;;6.98;100.00;93491.19;5088570;28;20044;-72
2022/10/09 02:24:40;;;;;;;9.55;7.22;;;;;;;7.06;100.00;93504.63;5088931;28;20044;-72
2022/10/09 02:27:09;;;;;;;9.52;6.57;;;;;;;6.91;100.00;93486.75;5088790;28;20040;-72
2022/10/09 02:29:38;;;;;;;7.93;6.38;;;;;;;7.02;100.00;93500.03;5089171;28;20048;-72
2022/10/09 02:32:05;;;;;;;9.27;6.30;;;;;;;6.99;100.00;93502.97;5088707;28;20048;-72
2022/10/09 02:34:32;;;;;;;10.55;6.55;;;;;;;6.96;100.00;93496.47;5088974;28;20389;-73
2022/10/09 02:36:59;;;;;;;8.05;5.95;;;;;;;6.91;100.00;93494.41;5088795;28;20044;-72
2022/10/09 02:39:25;;;;;;;9.57;6.80;;;;;;;6.93;100.00;93495.06;5088329;28;20054;-72
2022/10/09 02:41:52;;;;;;;8.52;6.75;;;;;;;6.95;100.00;93494.88;5088902;28;20040;-72
2022/10/09 02:44:20;;;;;;;7.25;6.15;;;;;;;6.76;100.00;93465.59;5088497;28;20899;-72
2022/10/09 02:46:47;;;;;;;9.40;7.50;;;;;;;6.96;100.00;93496.47;5088293;28;20495;-72
2022/10/09 02:49:13;;;;;;;8.68;6.68;;;;;;;6.97;100.00;93500.59;5088815;28;20085;-72
2022/10/09 02:51:40;;;;;;;9.02;6.90;;;;;;;6.93;100.00;93497.59;5088566;28;20048;-73
2022/10/09 02:54:07;;;;;;;8.90;6.00;;;;;;;6.97;100.00;93502.34;5088125;28;20048;-72
2022/10/09 02:56:34;;;;;;;8.70;6.93;;;;;;;6.90;100.00;93504.84;5088468;28;20101;-72
2022/10/09 02:59:00;;;;;;;7.93;5.78;;;;;;;6.90;100.00;93497.94;5088587;28;20453;-72
2022/10/09 03:01:28;;;;;;;7.57;5.88;;;;;;;6.90;100.00;93507.38;5088158;28;20812;-72
2022/10/09 03:03:55;;;;;;;7.47;5.40;;;;;;;6.86;100.00;93501.84;5088476;28;20048;-72
2022/10/09 03:06:24;;;;;;;8.75;5.40;;;;;;;6.82;100.00;93510.84;5090804;28;20040;-72
2022/10/09 03:08:52;;;;;;;7.18;5.47;;;;;;;6.76;100.00;93507.22;5092448;28;20044;-72
2022/10/09 03:11:20;;;;;;;6.50;5.18;;;;;;;6.73;100.00;93506.78;5092844;28;20081;-73
2022/10/09 03:13:47;;;;;;;7.57;5.30;;;;;;;6.77;100.00;93511.34;5092258;28;20145;-73
2022/10/09 03:16:16;;;;;;;7.65;5.93;;;;;;;6.76;100.00;93522.53;5092320;28;20097;-72
2022/10/09 03:18:45;;;;;;;8.60;6.30;;;;;;;6.64;100.00;93506.91;5092219;28;20052;-73
2022/10/09 03:21:13;;;;;;;7.30;5.43;;;;;;;6.61;100.00;93517.44;5092416;28;20044;-72
2022/10/09 03:23:40;;;;;;;8.00;6.22;;;;;;;6.54;100.00;93517.34;5092719;28;20048;-72
2022/10/09 03:26:09;;;;;;;8.38;6.65;;;;;;;6.53;100.00;93513.22;5092108;28;20104;-72
2022/10/09 03:28:36;;;;;;;10.73;7.47;;;;;;;6.51;100.00;93517.72;5092460;28;20044;-72
2022/10/09 03:31:03;;;;;;;8.07;6.45;;;;;;;6.42;100.00;93495.81;5092010;28;20180;-72
2022/10/09 03:33:30;;;;;;;10.65;6.82;;;;;;;6.54;100.00;93516.59;5091904;28;20074;-72
2022/10/09 03:35:58;;;;;;;7.63;6.10;;;;;;;6.59;100.00;93516.03;5091940;28;20066;-72
2022/10/09 03:38:25;;;;;;;9.20;5.93;;;;;;;6.59;100.00;93529.59;5091626;28;20089;-72
2022/10/09 03:40:52;;;;;;;8.77;6.15;;;;;;;6.56;100.00;93512.09;5091879;28;20048;-72
2022/10/09 03:43:18;;;;;;;9.00;6.03;;;;;;;6.55;100.00;93524.06;5091570;28;20089;-72
2022/10/09 03:45:45;;;;;;;8.80;5.88;;;;;;;6.58;100.00;93520.38;5091483;28;20081;-73
2022/10/09 03:48:14;;;;;;;9.30;6.55;;;;;;;6.59;100.00;93510.94;5105761;27;20035;-73
2022/10/09 03:50:41;;;;;;;9.07;5.78;;;;;;;6.59;100.00;93524.50;5123841;27;20063;-73
2022/10/09 03:53:11;;;;;;;7.88;6.10;;;;;;;6.59;100.00;93521.94;5114589;27;20559;-72
2022/10/09 03:55:39;;;;;;;9.82;6.68;;;;;;;6.49;100.00;93511.22;5132874;27;20163;-73
2022/10/09 03:58:06;;;;;;;7.93;6.50;;;;;;;6.50;100.00;93507.69;5133067;27;20088;-73
2022/10/09 04:00:34;;;;;;;11.52;7.20;;;;;;;6.55;100.00;93516.41;5133061;27;20046;-74
2022/10/09 04:03:01;;;;;;;10.77;7.35;;;;;;;6.59;100.00;93516.03;5132804;27;20055;-74
2022/10/09 04:05:29;;;;;;;9.50;6.80;;;;;;;6.57;100.00;93513.66;5132508;27;20043;-73
2022/10/09 04:07:55;;;;;;;11.15;7.53;;;;;;;6.59;100.00;93519.41;5132830;27;20088;-73
2022/10/09 04:10:24;;;;;;;10.05;7.55;;;;;;;6.37;100.00;93498.09;5133023;27;20155;-73
2022/10/09 04:12:50;;;;;;;8.88;6.80;;;;;;;6.56;100.00;93527.41;5132893;27;20043;-73
2022/10/09 04:15:17;;;;;;;9.15;6.70;;;;;;;6.54;100.00;93530.13;5132663;27;20043;-73
2022/10/09 04:17:44;;;;;;;8.30;6.75;;;;;;;6.51;100.00;93527.94;5132092;27;20047;-73
2022/10/09 04:20:11;;;;;;;16.13;11.32;;;;;;;6.46;100.00;93529.41;5120592;27;20052;-73
2022/10/09 04:22:37;;;;;;;13.35;8.45;;;;;;;6.43;100.00;93530.56;5130377;27;20523;-73
2022/10/09 04:25:05;;;;;;;14.07;9.07;;;;;;;6.39;100.00;93522.47;5132580;27;20051;-73
2022/10/09 04:27:33;;;;;;;17.95;9.70;;;;;;;6.40;100.00;93528.38;5132348;27;20088;-72
2022/10/09 04:29:59;;;;;;;15.27;10.63;;;;;;;6.39;100.00;93521.69;5132230;27;20043;-72
2022/10/09 04:32:26;;;;;;;15.48;10.30;;;;;;;6.37;100.00;93526.16;5132332;27;20096;-72
2022/10/09 04:34:53;;;;;;;17.92;11.32;;;;;;;6.30;100.00;93531.19;5132280;27;20100;-73
2022/10/09 04:37:20;;;;;;;19.42;12.27;;;;;;;6.36;100.00;93538.16;5132488;27;20051;-73
2022/10/09 04:39:46;;;;;;;15.43;9.75;;;;;;;6.37;100.00;93542.28;5132116;27;20043;-72
2022/10/09 04:42:13;;;;;;;12.73;8.45;;;;;;;6.35;100.00;93539.09;5132210;27;20047;-72
2022/10/09 04:44:41;;;;;;;12.02;7.82;;;;;;;6.34;100.00;93536.75;5132186;27;20103;-72
2022/10/09 04:47:08;;;;;;;12.88;8.43;;;;;;;6.30;100.00;93536.31;5132150;27;20047;-72
2022/10/09 04:49:35;;;;;;;14.82;8.98;;;;;;;6.28;100.00;93533.09;5131872;27;20100;-73
2022/10/09 04:52:01;;;;;;;13.57;9.57;;;;;;;6.29;100.00;93537.25;5132197;27;20108;-72
2022/10/09 04:54:28;;;;;;;15.35;12.45;;;;;;;6.28;100.00;93540.75;5132014;27;20055;-72
2022/10/09 04:56:55;;;;;;;15.00;12.82;;;;;;;6.26;100.00;93537.59;5132113;27;20380;-72
2022/10/09 04:59:21;;;;;;;16.10;11.27;;;;;;;6.25;100.00;93536.03;5132039;27;20100;-72
2022/10/09 05:01:49;;;;;;;13.20;10.50;;;;;;;6.27;100.00;93540.00;5132009;27;20426;-72
2022/10/09 05:04:16;;;;;;;15.13;13.23;;;;;;;6.26;100.00;93542.72;5131757;27;20514;-72
2022/10/09 05:06:43;;;;;;;20.17;12.95;;;;;;;6.30;100.00;93541.41;5131784;27;20088;-73
2022/10/09 05:11:54;;;;;;;18.58;14.02;;;;;;;6.30;100.00;93543.16;5131502;27;20058;-72
2022/10/09 05:14:20;;;;;;;31.33;22.35;;;;;;;6.34;100.00;93545.16;5131823;27;20043;-72
2022/10/09 05:16:52;;;;;;;42.65;26.95;;;;;;;6.35;100.00;93546.75;5131243;27;20043;-72
2022/10/09 05:19:19;;;;;;;41.95;27.40;;;;;;;6.41;100.00;93545.25;5126367;27;20039;-72
2022/10/09 05:21:45;;;;;;;39.15;26.73;;;;;;;6.39;100.00;93537.78;5122082;27;20096;-72
2022/10/09 05:24:12;;;;;;;35.10;26.00;;;;;;;6.46;100.00;93550.63;5131131;27;20047;-72
2022/10/09 05:26:39;;;;;;;31.90;24.17;;;;;;;6.52;100.00;93551.69;5131543;27;20091;-72
2022/10/09 05:29:05;;;;;;;32.78;22.38;;;;;;;6.58;100.00;93555.31;5130516;27;20051;-72
2022/10/09 05:31:32;;;;;;;25.13;17.88;;;;;;;6.65;100.00;93556.19;5131401;27;20491;-72
2022/10/09 05:34:00;;;;;;;24.48;17.48;;;;;;;6.67;100.00;93541.50;5131344;27;20051;-72
2022/10/09 05:36:28;;;;;;;20.33;14.75;;;;;;;6.85;100.00;93560.75;5131255;27;20043;-72
2022/10/09 05:38:54;;;;;;;16.20;11.15;;;;;;;6.92;100.00;93559.06;5131270;27;20043;-72
2022/10/09 05:41:21;;;;;;;14.85;10.52;;;;;;;7.01;100.00;93564.88;5130998;27;20507;-72
2022/10/09 05:43:49;;;;;;;11.98;8.75;;;;;;;7.09;100.00;93562.22;5130962;27;20043;-72
2022/10/09 05:46:18;;;;;;;14.90;8.73;;;;;;;7.16;100.00;93560.53;5130763;27;20046;-72
2022/10/09 05:48:47;;;;;;;13.35;8.50;;;;;;;7.25;100.00;93565.53;5130675;27;20571;-72
2022/10/09 05:51:16;;;;;;;12.63;7.70;;;;;;;7.40;100.00;93578.28;5130565;27;20055;-72
2022/10/09 05:53:44;;;;;;;10.48;7.00;;;;;;;7.37;100.00;93560.75;5130810;27;20051;-72
2022/10/09 05:56:13;;;;;;;11.32;7.90;;;;;;;7.66;100.00;93580.31;5130847;27;20046;-72
2022/10/09 05:58:39;;;;;;;13.25;8.77;;;;;;;7.81;100.00;93585.38;5130924;27;20059;-72
2022/10/09 06:01:07;;;;;;;11.65;8.02;;;;;;;7.91;100.00;93589.38;5130515;27;20103;-72
2022/10/09 06:03:34;;;;;;;12.93;9.02;;;;;;;8.08;100.00;93592.47;5130400;27;20138;-72
2022/10/09 06:06:01;;;;;;;13.38;8.65;;;;;;;8.14;100.00;93594.28;5130812;27;20043;-72
2022/10/09 06:08:31;;;;;;;11.70;9.02;;;;;;;8.26;100.00;93592.03;5130216;27;20451;-73
2022/10/09 06:10:58;;;;;;;12.60;9.18;;;;;;;8.36;100.00;93597.63;5130807;27;20043;-73
2022/10/09 06:13:26;;;;;;;13.63;9.90;;;;;;;8.49;100.00;93596.13;5130421;27;20043;-73
2022/10/09 06:15:53;;;;;;;11.77;8.73;;;;;;;8.65;100.00;93597.63;5130479;27;20088;-73
2022/10/09 06:18:20;;;;;;;13.93;9.40;;;;;;;8.68;100.00;93600.63;5130217;27;20092;-73
2022/10/09 06:20:54;;;;;;;10.63;8.43;;;;;;;8.79;100.00;93604.41;5115624;27;20074;-73
2022/10/09 06:23:21;;;;;;;13.15;9.63;;;;;;;8.92;100.00;93615.72;5130154;27;20043;-73
2022/10/09 06:25:52;;;;;;;15.63;11.68;;;;;;;9.01;100.00;93601.78;5130232;27;20044;-73
2022/10/09 06:28:19;;;;;;;16.77;10.85;;;;;;;9.05;100.00;93613.22;5130376;27;20677;-73
2022/10/09 06:30:46;;;;;;;16.10;11.48;;;;;;;9.20;100.00;93607.16;5130129;27;20093;-73
2022/10/09 06:33:13;;;;;;;19.63;11.70;;;;;;;9.19;100.00;93601.28;5130156;27;20043;-73
2022/10/09 06:35:40;;;;;;;16.55;11.50;;;;;;;9.39;100.00;93618.47;5130386;27;20047;-73
2022/10/09 06:38:07;;;;;;;20.67;11.88;;;;;;;9.38;100.00;93618.66;5129666;27;20039;-73
2022/10/09 06:40:35;;;;;;;17.92;11.07;;;;;;;9.39;100.00;93623.63;5130138;27;20051;-73
2022/10/09 06:43:04;;;;;;;18.42;10.70;;;;;;;9.58;100.00;93622.09;5129886;27;20046;-73
2022/10/09 06:45:30;;;;;;;19.55;10.50;;;;;;;9.71;100.00;93629.03;5129951;27;20047;-73
2022/10/09 06:47:57;;;;;;;17.15;11.95;;;;;;;9.89;100.00;93633.63;5130183;28;20039;-73
2022/10/09 06:50:24;;;;;;;15.63;10.40;;;;;;;9.98;100.00;93630.88;5129750;28;20051;-72
2022/10/09 06:52:51;;;;;;;16.75;10.52;;;;;;;10.09;100.00;93621.81;5130070;28;20437;-73
2022/10/09 06:55:18;;;;;;;24.77;14.30;;;;;;;10.36;100.00;93644.91;5128299;28;20046;-73
2022/10/09 06:57:44;;;;;;;90.85;40.10;;;;;;;10.55;100.00;93635.66;5103373;28;20384;-73
2022/10/09 07:00:14;;;;;;;129.43;57.60;;;;;;;10.75;100.00;93640.81;5116058;28;20051;-73
2022/10/09 07:02:41;;;;;;;122.32;57.03;;;;;;;10.99;100.00;93635.22;5102299;28;20413;-72
2022/10/09 07:05:08;;;;;;;205.70;88.00;;;;;;;11.19;100.00;93615.41;5129946;28;20043;-73
2022/10/09 07:07:39;;;;;;;144.70;61.05;;;;;;;11.42;100.00;93614.13;5129488;28;20139;-72
2022/10/09 07:10:07;;;;;;;150.45;64.30;;;;;;;11.75;100.00;93630.38;5129473;28;20551;-73
2022/10/09 07:12:34;;;;;;;167.02;69.45;;;;;;;11.94;100.00;93630.50;5129482;28;20092;-73
2022/10/09 07:15:01;;;;;;;170.35;72.68;;;;;;;12.13;100.00;93641.72;5129770;28;20040;-73
2022/10/09 07:17:29;;;;;;;134.45;57.53;;;;;;;12.22;100.00;93652.53;5129094;28;20095;-72
2022/10/09 07:19:56;;;;;;;156.38;66.78;;;;;;;12.40;100.00;93644.88;5119451;28;20494;-72
2022/10/09 07:22:22;;;;;;;137.95;58.50;;;;;;;12.50;100.00;93652.13;5125330;28;20043;-73
2022/10/09 07:24:49;;;;;;;127.97;54.03;;;;;;;12.59;100.00;93641.56;5129776;28;20055;-73
2022/10/09 07:27:16;;;;;;;103.75;44.45;;;;;;;12.56;100.00;93651.28;5129530;28;20039;-73
2022/10/09 07:29:43;;;;;;;92.93;39.83;;;;;;;12.63;100.00;93653.81;5129616;28;20198;-73
2022/10/09 07:32:10;;;;;;;78.35;35.97;;;;;;;12.73;100.00;93653.31;5127067;28;20048;-74
2022/10/09 07:34:38;;;;;;;76.03;34.78;;;;;;;12.93;100.00;93653.16;5127889;28;20047;-72
2022/10/09 07:37:04;;;;;;;72.88;34.80;;;;;;;13.03;100.00;93664.75;5116969;28;20040;-72
2022/10/09 07:39:31;;;;;;;72.57;32.95;;;;;;;13.27;100.00;93657.19;5113618;28;20088;-73
2022/10/09 07:41:58;;;;;;;61.80;30.27;;;;;;;13.54;100.00;93668.03;5129159;28;20515;-73
2022/10/09 07:44:25;;;;;;;47.53;24.02;;;;;;;13.73;100.00;93660.25;5129485;28;20043;-73
2022/10/09 07:46:52;;;;;;;33.20;14.10;;;;;;;13.90;98.67;93658.66;5129058;28;20107;-73
2022/10/09 07:49:18;;;;;;;38.85;18.17;;;;;;;14.12;98.52;93660.75;5129662;28;20050;-73
2022/10/09 07:51:47;;;;;;;35.78;17.38;;;;;;;14.21;98.72;93668.19;5117754;28;20047;-73
2022/10/09 07:54:19;;;;;;;23.55;12.38;;;;;;;14.30;98.96;93652.16;5130765;27;20490;-73
2022/10/09 07:56:49;;;;;;;25.20;12.05;;;;;;;14.63;97.15;93669.97;5132865;27;20043;-73
2022/10/09 07:59:19;;;;;;;21.30;10.82;;;;;;;14.83;100.00;93662.69;5131153;27;20845;-74
2022/10/09 08:01:46;;;;;;;21.95;10.50;;;;;;;15.07;97.54;93661.91;5133329;27;20055;-73
2022/10/09 08:04:13;;;;;;;16.75;8.38;;;;;;;15.34;96.65;93651.06;5133252;27;20047;-73
2022/10/09 08:06:39;;;;;;;14.30;7.82;;;;;;;15.79;95.75;93659.19;5133130;27;20119;-73
2022/10/09 08:09:08;;;;;;;17.38;8.07;;;;;;;16.06;93.22;93653.47;5132769;27;20039;-73
2022/10/09 08:11:39;;;;;;;17.50;7.68;;;;;;;16.32;92.50;93654.69;5132707;27;20596;-72
2022/10/09 08:14:06;;;;;;;17.05;7.70;;;;;;;16.33;89.26;93650.31;5132949;27;20130;-72
2022/10/09 08:16:33;;;;;;;17.13;6.07;;;;;;;16.43;85.93;93658.22;5132780;27;20084;-72
2022/10/09 08:19:01;;;;;;;14.93;6.97;;;;;;;16.58;90.77;93652.50;5130622;27;20043;-72
2022/10/09 08:21:28;;;;;;;13.77;6.45;;;;;;;16.61;88.19;93649.44;5105776;28;20047;-73
2022/10/09 08:23:56;;;;;;;14.65;6.57;;;;;;;16.79;87.75;93648.41;5114484;27;20552;-72
2022/10/09 08:26:26;;;;;;;19.42;6.75;;;;;;;16.99;86.96;93651.53;5132616;27;20043;-73
2022/10/09 08:28:55;;;;;;;14.35;6.03;;;;;;;17.12;86.67;93648.63;5121845;27;20103;-73
2022/10/09 08:31:23;;;;;;;9.63;5.20;;;;;;;16.80;84.74;93644.78;5092223;27;20094;-72
2022/10/09 08:33:52;;;;;;;12.80;6.18;;;;;;;17.11;86.83;93647.06;5132642;27;20051;-73
2022/10/09 08:36:19;;;;;;;14.13;5.78;;;;;;;17.34;86.17;93645.25;5132669;27;20051;-73
2022/10/09 08:38:46;;;;;;;13.60;5.47;;;;;;;17.38;84.56;93643.75;5131028;27;20046;-73
2022/10/09 08:41:20;;;;;;;10.80;4.78;;;;;;;17.30;84.24;93646.75;5123574;27;20053;-72
2022/10/09 08:43:52;;;;;;;11.45;6.03;;;;;;;16.81;84.71;93630.78;5132057;27;20451;-72
2022/10/09 08:46:26;;;;;;;9.40;5.22;;;;;;;16.83;88.08;93597.63;5132538;27;20051;-72
2022/10/09 08:48:54;;;;;;;7.32;4.68;;;;;;;17.28;87.80;93618.47;5131968;27;20043;-72
2022/10/09 08:51:25;;;;;;;9.77;4.50;;;;;;;17.71;81.46;93633.47;5132258;27;20058;-72
2022/10/09 08:53:58;;;;;;;7.97;4.60;;;;;;;17.92;82.06;93626.69;5132117;27;20039;-72
2022/10/09 08:56:26;;;;;;;13.00;4.10;;;;;;;17.95;78.63;93631.38;5131949;27;20043;-72
2022/10/09 08:58:54;;;;;;;5.28;3.40;;;;;;;17.87;80.24;93626.63;5131994;27;20043;-72
2022/10/09 09:01:30;;;;;;;6.18;4.35;;;;;;;17.66;79.38;93633.41;5131697;27;20051;-72
2022/10/09 09:04:22;;;;;;;9.23;3.85;;;;;;;17.68;81.60;93610.59;5130833;27;20130;-72
2022/10/09 09:06:56;;;;;;;8.13;4.28;;;;;;;17.97;80.73;93615.56;5094877;27;20040;-72
2022/10/09 09:09:31;;;;;;;8.10;3.97;;;;;;;18.35;81.97;93616.44;5113411;27;20047;-72
2022/10/09 09:12:11;;;;;;;7.65;4.47;;;;;;;18.76;79.64;93621.16;5131544;27;20069;-72
2022/10/09 09:14:55;;;;;;;6.78;3.45;;;;;;;19.07;78.46;93623.19;5131551;27;20043;-73
2022/10/09 09:17:30;;;;;;;5.85;3.55;;;;;;;19.18;74.90;93630.00;5098252;27;20052;-73
2022/10/09 09:20:05;;;;;;;5.68;2.90;;;;;;;19.28;72.47;93623.28;5113198;27;20466;-73
2022/10/09 09:22:33;;;;;;;6.25;3.20;;;;;;;18.82;71.30;93624.56;5089838;28;20097;-73
2022/10/09 09:25:02;;;;;;;8.57;3.10;;;;;;;19.02;76.03;93620.53;5090446;28;20094;-73
2022/10/09 09:27:31;;;;;;;6.78;3.17;;;;;;;19.32;73.05;93626.94;5120074;27;20047;-73
2022/10/09 09:30:03;;;;;;;5.55;2.92;;;;;;;18.86;69.07;93632.66;5131293;27;20569;-72
2022/10/09 09:32:32;;;;;;;4.72;2.88;;;;;;;19.15;73.88;93621.91;5131398;27;20055;-73
2022/10/09 09:35:08;;;;;;;12.45;4.05;;;;;;;19.40;74.55;93623.88;5131068;27;20043;-73
2022/10/09 09:37:36;;;;;;;11.45;3.75;;;;;;;19.65;74.69;93626.78;5131325;27;20047;-73
2022/10/09 09:40:04;;;;;;;9.70;3.83;;;;;;;19.82;72.24;93629.19;5131243;27;20062;-73
2022/10/09 09:42:31;;;;;;;6.95;4.22;;;;;;;20.08;72.88;93624.84;5131216;27;20484;-73
2022/10/09 09:45:02;;;;;;;5.10;3.05;;;;;;;20.17;68.00;93632.94;5119132;27;20043;-73
2022/10/09 09:47:34;;;;;;;5.25;2.95;;;;;;;19.65;67.04;93634.59;5095561;27;20054;-73
2022/10/09 09:50:04;;;;;;;5.72;2.65;;;;;;;19.33;67.28;93636.31;5103145;28;20040;-73
2022/10/09 09:52:36;;;;;;;5.10;2.70;;;;;;;19.29;68.41;93604.00;5102939;28;20047;-73
2022/10/09 09:55:04;;;;;;;5.70;3.67;;;;;;;19.68;65.81;93640.13;5102977;28;20043;-73
2022/10/09 09:57:34;;;;;;;5.38;2.70;;;;;;;19.41;66.33;93629.84;5105111;28;20047;-73
2022/10/09 10:00:19;;;;;;;5.68;3.05;;;;;;;19.34;66.15;93630.06;5108344;28;20039;-73
2022/10/09 10:02:46;;;;;;;3.50;2.10;;;;;;;19.34;64.97;93637.88;5108143;28;20138;-73
2022/10/09 10:05:35;;;;;;;7.20;2.90;;;;;;;19.34;67.60;93638.66;5110156;28;20503;-73
2022/10/09 10:08:13;;;;;;;5.30;3.10;;;;;;;19.35;69.86;93621.22;5128053;27;20650;-73
2022/10/09 10:10:47;;;;;;;5.38;2.65;;;;;;;19.45;66.70;93633.50;5127495;27;20116;-73
2022/10/09 10:13:17;;;;;;;3.80;2.50;;;;;;;19.63;66.54;93638.25;5112369;27;20043;-74
2022/10/09 10:15:54;;;;;;;4.22;2.42;;;;;;;19.55;64.53;93611.91;5125593;27;20126;-73
2022/10/09 10:18:23;;;;;;;4.18;2.63;;;;;;;20.00;65.99;93626.13;5127400;27;20039;-73
2022/10/09 10:20:52;;;;;;;4.22;2.50;;;;;;;20.26;65.42;93630.59;5115975;27;20039;-73
2022/10/09 10:23:32;;;;;;;3.95;2.53;;;;;;;20.28;63.52;93626.69;5130515;27;20047;-74
2022/10/09 10:26:02;;;;;;;5.18;2.15;;;;;;;20.44;63.64;93631.91;5130243;27;20047;-73
2022/10/09 10:28:35;;;;;;;4.53;2.42;;;;;;;20.56;61.71;93634.28;5115742;27;20051;-73
2022/10/09 10:31:07;;;;;;;4.20;2.30;;;;;;;20.72;61.73;93631.63;5130561;27;20043;-74
2022/10/09 10:33:36;;;;;;;3.40;1.90;;;;;;;20.36;55.96;93629.84;5129921;27;20039;-73
2022/10/09 10:36:04;;;;;;;3.47;2.20;;;;;;;20.16;59.05;93611.31;5130372;27;20054;-73
2022/10/09 10:38:35;;;;;;;3.80;2.30;;;;;;;20.13;60.17;93613.63;5130237;27;20043;-73
2022/10/09 10:41:12;;;;;;;4.78;2.30;;;;;;;19.95;58.33;93605.22;5124350;27;20108;-73
2022/10/09 10:43:43;;;;;;;5.63;2.33;;;;;;;20.00;58.63;93596.69;5107628;28;20044;-73
2022/10/09 10:46:23;;;;;;;5.82;2.50;;;;;;;20.10;61.21;93588.88;5114219;27;20039;-73
2022/10/09 10:48:51;;;;;;;4.88;2.60;;;;;;;20.42;62.54;93590.41;5130229;27;20126;-73
2022/10/09 10:51:42;;;;;;;5.75;2.40;;;;;;;20.77;64.09;93582.81;5099125;28;20047;-73
2022/10/09 10:54:22;;;;;;;7.78;2.95;;;;;;;20.98;59.35;93582.81;5122644;28;20051;-73
2022/10/09 10:56:55;;;;;;;4.40;2.65;;;;;;;20.68;61.63;93584.41;5129750;28;20051;-73
2022/10/09 10:59:33;;;;;;;3.78;2.38;;;;;;;20.31;62.77;93583.66;5129865;28;20039;-73
2022/10/09 11:02:34;;;;;;;4.05;2.50;;;;;;;20.14;62.56;93582.06;5109938;28;20117;-73
2022/10/09 11:05:15;;;;;;;3.80;2.53;;;;;;;20.52;61.55;93573.22;5064994;28;20138;-73
2022/10/09 11:07:47;;;;;;;3.10;2.10;;;;;;;20.50;60.63;93552.59;5102823;28;20051;-73
2022/10/09 11:10:22;;;;;;;4.35;2.65;;;;;;;20.57;61.25;93575.81;5126639;28;20437;-73
2022/10/09 11:12:56;;;;;;;3.35;2.15;;;;;;;20.51;58.89;93569.81;5129975;28;20047;-73
2022/10/09 11:15:36;;;;;;;3.85;2.55;;;;;;;20.59;60.89;93558.06;5128413;28;20055;-73
2022/10/09 11:18:16;;;;;;;4.35;2.60;;;;;;;20.76;58.67;93567.41;5097131;28;20058;-73
2022/10/09 11:20:59;;;;;;;4.43;2.58;;;;;;;21.08;57.75;93567.13;5111413;28;20040;-74
2022/10/09 11:23:37;;;;;;;6.18;2.88;;;;;;;21.05;58.18;93559.00;5129405;28;20047;-73
2022/10/09 11:26:11;;;;;;;6.55;2.33;;;;;;;21.35;57.94;93563.34;5129448;27;20448;-73
2022/10/09 11:28:44;;;;;;;3.45;2.10;;;;;;;21.26;58.19;93548.50;5133485;27;20074;-73
2022/10/09 11:31:15;;;;;;;5.82;2.35;;;;;;;21.26;55.99;93554.50;5133318;27;20487;-73
2022/10/09 11:33:47;;;;;;;4.47;2.65;;;;;;;21.44;57.49;93552.34;5133285;27;20047;-73
2022/10/09 11:36:22;;;;;;;4.43;2.22;;;;;;;21.36;57.18;93545.84;5133103;27;20585;-74
2022/10/09 11:38:55;;;;;;;4.45;2.53;;;;;;;21.38;57.14;93548.19;5133689;27;20092;-73
2022/10/09 11:41:22;;;;;;;9.13;2.65;;;;;;;21.04;54.34;93547.00;5133083;27;20046;-74